This is the latest recevied weather packets stored in our database for station/object F4GCF-13. If no packets are shown the sender has not sent any weather packets the latest 10 day(s).
| Time | Temp. | Humidity | Pressure | Rain* | Wind** | Luminosity | Snow |
|---|---|---|---|---|---|---|---|
| 1778010459 | 12.78° C | 74% | 1014 hPa | 0 mm | - | - | - |
| 1778010160 | 12.78° C | 73% | 1014 hPa | 0 mm | - | - | - |
| 1778009862 | 12.78° C | 73% | 1014 hPa | 0 mm | - | - | - |
| 1778008958 | 12.78° C | 73% | 1014 hPa | 0 mm | - | - | - |
| 1778008660 | 12.78° C | 72% | 1014 hPa | 0 mm | - | - | - |
| 1778005960 | 14.44° C | 67% | 1014 hPa | 0 mm | - | - | - |
| 1778005662 | 14.44° C | 67% | 1014 hPa | 0 mm | - | - | - |
| 1778004460 | 14.44° C | 65% | 1014 hPa | 0 mm | - | - | - |
| 1778003559 | 14.44° C | 64% | 1014 hPa | 0 mm | - | - | - |
| 1778003258 | 14.44° C | 64% | 1014 hPa | 0 mm | - | - | - |
| 1778002959 | 15° C | 64% | 1014 hPa | 0 mm | - | - | - |
| 1778002659 | 15° C | 62% | 1014 hPa | 0 mm | - | - | - |
| 1778002357 | 15° C | 62% | 1014 hPa | 0 mm | - | - | - |
| 1778002060 | 15.56° C | 61% | 1014 hPa | 0 mm | - | - | - |
| 1778001793 | 15.56° C | 61% | 1014 hPa | 0 mm | - | - | - |
| 1778001760 | 15.56° C | 61% | 1014 hPa | 0 mm | - | - | - |
| 1778001459 | 15.56° C | 60% | 1014 hPa | 0 mm | - | - | - |
| 1778000858 | 16.11° C | 59% | 1014 hPa | 0 mm | - | - | - |
| 1778000559 | 16.11° C | 58% | 1014 hPa | 0 mm | - | - | - |
| 1777999959 | 16.11° C | 58% | 1014 hPa | 0 mm | - | - | - |
| 1777999658 | 16.11° C | 57% | 1014 hPa | 0 mm | - | - | - |
| 1777999359 | 16.67° C | 57% | 1014 hPa | 0 mm | - | - | - |
| 1777999059 | 17.22° C | 59% | 1014 hPa | 0 mm | - | - | - |
| 1777998759 | 17.22° C | 60% | 1014 hPa | 0 mm | - | - | - |
| 1777998458 | 17.22° C | 61% | 1014 hPa | 0 mm | - | - | - |
* Rain latest hour (hover to see other rain measurements)
** Current wind speed in m/s (hover to see current wind gust speed)